Time;durP1;ratioP1;P1;durP2;ratioP2;P2;SDS_P1;SDS_P2;PMS_P1;PMS_P2;Temp;Humidity;BMP_temperature;BMP_pressure;BME280_temperature;BME280_humidity;BME280_pressure;Samples;Min_cycle;Max_cycle;Signal;HPM_P1;HPM_P2
2023/12/12 00:00:43;;;;;;;133.23;58.30;;;16.70;71.00;;;;;;5053497;28;20152;-41
2023/12/12 00:03:18;;;;;;;134.07;58.33;;;16.70;70.90;;;;;;5053031;28;20048;-40
2023/12/12 00:05:43;;;;;;;135.02;58.40;;;16.70;70.90;;;;;;5051412;28;20136;-41
2023/12/12 00:08:09;;;;;;;133.27;59.08;;;16.60;70.90;;;;;;5048439;28;20043;-40
2023/12/12 00:10:34;;;;;;;133.57;58.50;;;16.60;71.50;;;;;;5050745;28;20510;-40
2023/12/12 00:13:00;;;;;;;134.82;58.20;;;16.50;71.10;;;;;;5052566;28;20056;-38
2023/12/12 00:15:26;;;;;;;137.52;58.97;;;16.50;71.30;;;;;;5049761;28;20040;-42
2023/12/12 00:17:51;;;;;;;134.85;58.95;;;16.50;71.40;;;;;;5044912;28;20040;-45
2023/12/12 00:20:17;;;;;;;134.35;58.90;;;16.50;71.40;;;;;;5054170;28;20042;-36
2023/12/12 00:22:43;;;;;;;135.77;58.58;;;16.50;71.50;;;;;;5052804;28;20670;-39
2023/12/12 00:25:08;;;;;;;132.70;59.45;;;16.50;71.50;;;;;;5046697;28;20095;-37
2023/12/12 00:27:34;;;;;;;135.13;58.15;;;16.40;71.40;;;;;;5054482;28;20052;-37
2023/12/12 00:30:00;;;;;;;133.70;59.20;;;16.40;71.50;;;;;;5047920;28;20040;-38
2023/12/12 00:32:26;;;;;;;138.93;58.85;;;16.40;71.40;;;;;;5049776;28;20061;-36
2023/12/12 00:34:51;;;;;;;133.00;58.72;;;16.40;71.30;;;;;;5049445;28;20045;-37
2023/12/12 00:37:17;;;;;;;134.68;58.38;;;16.40;71.40;;;;;;5048306;28;20041;-36
2023/12/12 00:39:42;;;;;;;135.73;59.00;;;16.40;71.30;;;;;;5047357;28;20542;-37
2023/12/12 00:42:08;;;;;;;136.35;58.75;;;16.40;71.30;;;;;;5056016;28;20586;-37
2023/12/12 00:44:34;;;;;;;138.35;59.28;;;16.50;71.20;;;;;;5048651;28;20071;-37
2023/12/12 00:47:00;;;;;;;134.57;58.13;;;16.40;71.20;;;;;;5054437;28;20045;-36
2023/12/12 00:49:26;;;;;;;130.90;57.67;;;16.40;71.20;;;;;;5050134;28;20107;-36
2023/12/12 00:51:52;;;;;;;134.25;59.03;;;16.40;71.30;;;;;;5055779;28;20526;-37
2023/12/12 00:54:17;;;;;;;134.20;58.33;;;16.30;71.30;;;;;;5052452;28;20448;-36
2023/12/12 00:56:47;;;;;;;135.20;57.45;;;16.30;71.30;;;;;;5054893;28;20687;-37
2023/12/12 00:59:14;;;;;;;132.43;57.85;;;16.30;71.30;;;;;;5061273;28;20593;-36
2023/12/12 01:01:40;;;;;;;130.48;57.95;;;16.30;71.40;;;;;;5055849;28;20036;-36
2023/12/12 01:04:07;;;;;;;133.45;58.50;;;16.30;71.40;;;;;;5050030;28;20044;-36
2023/12/12 01:06:33;;;;;;;133.85;58.78;;;16.30;71.50;;;;;;5053863;28;20048;-36
2023/12/12 01:08:59;;;;;;;137.13;59.78;;;16.30;71.50;;;;;;5053311;28;20029;-37
2023/12/12 01:11:24;;;;;;;131.73;58.72;;;16.30;71.40;;;;;;5057761;28;20091;-37
2023/12/12 01:13:50;;;;;;;132.63;58.80;;;16.20;71.40;;;;;;5052650;28;21920;-37
2023/12/12 01:16:16;;;;;;;134.30;58.75;;;16.20;71.50;;;;;;5055159;28;20136;-36
2023/12/12 01:18:41;;;;;;;131.45;57.85;;;16.20;71.50;;;;;;5052645;28;20063;-36
2023/12/12 01:21:07;;;;;;;131.68;58.72;;;16.20;71.50;;;;;;5051820;28;20043;-36
2023/12/12 01:23:53;;;;;;;131.85;58.47;;;16.20;71.60;;;;;;5063517;28;20056;-37
2023/12/12 01:26:19;;;;;;;131.13;57.58;;;16.20;71.50;;;;;;5059307;28;20032;-37
2023/12/12 01:28:46;;;;;;;131.85;57.42;;;16.20;71.40;;;;;;5051005;28;20159;-38
2023/12/12 01:31:12;;;;;;;131.73;57.85;;;16.20;71.50;;;;;;5058736;28;20136;-39
2023/12/12 01:33:37;;;;;;;130.95;57.60;;;16.20;71.60;;;;;;5056870;28;20041;-38
2023/12/12 01:36:03;;;;;;;132.38;59.13;;;16.10;71.80;;;;;;5047132;28;20061;-38
2023/12/12 01:38:31;;;;;;;132.68;58.55;;;16.10;71.90;;;;;;5053652;28;21061;-38
2023/12/12 01:40:57;;;;;;;129.60;57.60;;;16.10;71.90;;;;;;5053654;28;20583;-37
2023/12/12 01:43:24;;;;;;;134.77;57.88;;;16.10;72.00;;;;;;5055579;28;20067;-45
2023/12/12 01:45:50;;;;;;;131.30;58.00;;;16.10;72.70;;;;;;5049757;28;20633;-46
2023/12/12 01:48:16;;;;;;;131.68;57.38;;;16.10;72.10;;;;;;5054692;28;20953;-46
2023/12/12 01:50:42;;;;;;;131.88;58.83;;;16.00;71.90;;;;;;5051261;28;20041;-49
2023/12/12 01:53:08;;;;;;;133.15;57.45;;;16.00;72.10;;;;;;5050543;28;20037;-47
2023/12/12 01:55:36;;;;;;;135.07;58.38;;;16.00;72.10;;;;;;5048683;28;20029;-48
2023/12/12 01:58:02;;;;;;;131.52;57.20;;;16.00;72.10;;;;;;5050008;28;20044;-48
2023/12/12 02:00:28;;;;;;;131.35;57.85;;;16.00;71.90;;;;;;5048076;28;20050;-48
2023/12/12 02:02:54;;;;;;;134.43;58.38;;;16.00;71.90;;;;;;5041714;28;20706;-48
2023/12/12 02:05:20;;;;;;;129.95;57.47;;;16.00;72.00;;;;;;5053099;28;20029;-45
2023/12/12 02:07:48;;;;;;;131.43;57.10;;;16.00;72.00;;;;;;5050884;28;20064;-46
2023/12/12 02:10:13;;;;;;;129.38;57.45;;;16.00;72.10;;;;;;5054286;28;20071;-47
2023/12/12 02:12:39;;;;;;;129.88;57.58;;;16.00;72.00;;;;;;5055604;28;20041;-47
2023/12/12 02:15:05;;;;;;;132.50;58.13;;;16.00;72.10;;;;;;5052749;28;20634;-47
2023/12/12 02:17:31;;;;;;;134.00;57.28;;;15.90;72.00;;;;;;5052340;28;20064;-47
2023/12/12 02:19:57;;;;;;;126.57;56.70;;;15.90;72.00;;;;;;5046440;28;20044;-47
2023/12/12 02:22:23;;;;;;;131.50;58.47;;;16.00;71.90;;;;;;5049418;28;20538;-47
2023/12/12 02:24:49;;;;;;;130.02;57.90;;;15.90;72.10;;;;;;5053412;28;20526;-46
2023/12/12 02:27:15;;;;;;;129.95;57.75;;;15.90;72.10;;;;;;5053335;28;20045;-47
2023/12/12 02:29:41;;;;;;;128.00;57.28;;;15.90;72.20;;;;;;5056165;28;20049;-47
2023/12/12 02:32:06;;;;;;;130.48;58.55;;;15.90;72.10;;;;;;5055600;28;20052;-47
2023/12/12 02:34:32;;;;;;;134.88;58.88;;;15.90;72.10;;;;;;5050214;28;20037;-47
2023/12/12 02:36:58;;;;;;;132.40;58.05;;;15.90;72.10;;;;;;5049783;28;20210;-47
2023/12/12 02:39:23;;;;;;;130.55;58.08;;;15.90;72.10;;;;;;5046492;28;20045;-47
2023/12/12 02:41:49;;;;;;;129.00;56.85;;;15.90;72.20;;;;;;5052273;28;20701;-47
2023/12/12 02:44:14;;;;;;;128.98;57.20;;;15.90;72.10;;;;;;5048528;28;20056;-47
2023/12/12 02:46:40;;;;;;;129.65;57.55;;;15.90;72.10;;;;;;5051191;28;20048;-47
2023/12/12 02:49:06;;;;;;;130.32;58.25;;;15.90;72.20;;;;;;5055181;28;20045;-48
2023/12/12 02:51:32;;;;;;;132.65;58.15;;;15.90;72.20;;;;;;5044112;28;20029;-47
2023/12/12 02:53:58;;;;;;;132.38;57.25;;;15.90;72.30;;;;;;5044547;28;20056;-47
2023/12/12 02:56:23;;;;;;;128.48;57.28;;;15.80;72.20;;;;;;5050363;28;20041;-47
2023/12/12 02:58:49;;;;;;;131.77;58.30;;;15.90;72.30;;;;;;5049940;28;20048;-47
2023/12/12 03:01:15;;;;;;;131.63;57.15;;;15.90;72.20;;;;;;5051849;28;20232;-47
2023/12/12 03:03:40;;;;;;;129.70;57.58;;;15.80;72.20;;;;;;5052354;28;20057;-47
2023/12/12 03:06:09;;;;;;;129.20;56.85;;;15.80;72.20;;;;;;5053233;28;20418;-47
2023/12/12 03:08:35;;;;;;;130.27;56.75;;;15.80;72.40;;;;;;5058441;28;20514;-46
2023/12/12 03:11:01;;;;;;;129.55;56.58;;;15.80;72.20;;;;;;5051730;28;20029;-47
2023/12/12 03:13:27;;;;;;;128.57;57.05;;;15.80;72.20;;;;;;5049573;28;20060;-46
2023/12/12 03:15:52;;;;;;;128.57;57.55;;;15.80;72.20;;;;;;5046776;28;20037;-46
2023/12/12 03:18:18;;;;;;;129.70;57.42;;;15.80;72.20;;;;;;5051497;28;20041;-46
2023/12/12 03:20:44;;;;;;;130.93;57.10;;;15.80;72.30;;;;;;5053946;28;21454;-46
2023/12/12 03:23:09;;;;;;;128.70;56.97;;;15.80;72.30;;;;;;5051051;28;20041;-46
2023/12/12 03:25:35;;;;;;;128.25;56.97;;;15.70;72.50;;;;;;5044254;28;22142;-47
2023/12/12 03:28:00;;;;;;;131.60;57.10;;;15.70;72.30;;;;;;5046172;28;20240;-46
2023/12/12 03:30:26;;;;;;;130.02;57.47;;;15.70;72.50;;;;;;5052713;28;20428;-47
2023/12/12 03:32:52;;;;;;;130.20;57.50;;;15.80;72.40;;;;;;5054892;28;20092;-46
2023/12/12 03:35:17;;;;;;;130.05;58.05;;;15.80;72.30;;;;;;5051166;28;20037;-46
2023/12/12 03:37:43;;;;;;;130.85;57.55;;;15.80;72.30;;;;;;5050040;28;20049;-47
2023/12/12 03:40:09;;;;;;;130.10;58.10;;;15.70;72.30;;;;;;5050465;28;20069;-47
2023/12/12 03:42:35;;;;;;;130.95;57.63;;;15.70;72.30;;;;;;5049188;28;20144;-39
2023/12/12 03:45:01;;;;;;;129.93;57.13;;;15.70;72.40;;;;;;5052512;28;20866;-38
2023/12/12 03:47:26;;;;;;;129.00;57.15;;;15.70;72.20;;;;;;5055503;28;20055;-38
2023/12/12 03:49:52;;;;;;;129.25;57.20;;;15.70;72.40;;;;;;5047674;28;20098;-38
2023/12/12 03:52:18;;;;;;;129.63;57.08;;;15.70;72.30;;;;;;5048907;28;20034;-39
2023/12/12 03:54:43;;;;;;;127.97;56.67;;;15.70;72.30;;;;;;5049756;28;20068;-38
2023/12/12 03:57:09;;;;;;;131.25;56.63;;;15.70;72.40;;;;;;5049862;28;20036;-38
2023/12/12 03:59:35;;;;;;;131.05;57.00;;;15.70;72.40;;;;;;5047625;28;20174;-46
2023/12/12 04:02:00;;;;;;;128.07;57.47;;;15.70;72.40;;;;;;5049500;28;20075;-47
2023/12/12 04:04:26;;;;;;;129.25;57.58;;;15.70;72.50;;;;;;5044073;28;20033;-46
2023/12/12 04:06:52;;;;;;;129.15;57.30;;;15.70;72.70;;;;;;5050333;28;22485;-48
2023/12/12 04:09:17;;;;;;;129.40;57.00;;;15.70;72.80;;;;;;5050283;28;20030;-47
2023/12/12 04:11:43;;;;;;;130.13;57.85;;;15.70;72.80;;;;;;5051944;28;20029;-46
2023/12/12 04:14:08;;;;;;;129.35;58.30;;;15.70;72.70;;;;;;5056602;28;20132;-47
2023/12/12 04:16:34;;;;;;;130.73;57.95;;;15.70;72.70;;;;;;5053014;28;20648;-46
2023/12/12 04:19:00;;;;;;;130.05;58.25;;;15.80;72.70;;;;;;5048232;28;20642;-47
2023/12/12 04:21:25;;;;;;;127.82;57.20;;;15.70;72.70;;;;;;5050483;28;20131;-47
2023/12/12 04:23:51;;;;;;;129.68;58.33;;;15.70;72.60;;;;;;5051541;28;20033;-47
2023/12/12 04:26:17;;;;;;;131.95;58.08;;;15.70;72.70;;;;;;5047404;28;20053;-47
2023/12/12 04:28:43;;;;;;;127.93;56.97;;;15.80;72.60;;;;;;5056065;28;20037;-47
2023/12/12 04:31:16;;;;;;;128.85;57.42;;;15.80;72.50;;;;;;5047270;28;20040;-47
2023/12/12 04:33:42;;;;;;;129.80;57.60;;;15.70;72.50;;;;;;5049713;28;20527;-46
2023/12/12 04:36:12;;;;;;;131.88;57.90;;;15.80;72.50;;;;;;5050490;28;20044;-47
2023/12/12 04:38:38;;;;;;;126.00;56.00;;;15.80;72.40;;;;;;5050659;28;20130;-46
2023/12/12 04:41:04;;;;;;;127.88;57.40;;;15.80;72.50;;;;;;5045962;28;20033;-47
2023/12/12 04:43:30;;;;;;;129.20;57.13;;;15.80;72.50;;;;;;5053521;28;20061;-46
2023/12/12 04:45:56;;;;;;;128.68;57.45;;;15.70;72.50;;;;;;5046609;28;20127;-46
2023/12/12 04:48:22;;;;;;;129.23;57.72;;;15.70;72.50;;;;;;5054063;28;20549;-46
2023/12/12 04:50:47;;;;;;;129.00;57.58;;;15.70;72.40;;;;;;5051074;28;20026;-46
2023/12/12 04:53:13;;;;;;;130.45;57.35;;;15.70;72.50;;;;;;5047060;28;20045;-46
2023/12/12 04:55:39;;;;;;;128.95;57.97;;;15.70;72.70;;;;;;5047080;28;20136;-46
2023/12/12 04:58:05;;;;;;;127.05;56.83;;;15.70;72.60;;;;;;5044606;28;20037;-47
2023/12/12 05:00:30;;;;;;;127.97;57.30;;;15.70;72.60;;;;;;5040705;28;20041;-47
2023/12/12 05:02:56;;;;;;;127.43;57.00;;;15.70;72.50;;;;;;5044806;28;20318;-38
2023/12/12 05:05:21;;;;;;;129.00;57.30;;;15.70;72.70;;;;;;5048604;28;20604;-43
2023/12/12 05:07:47;;;;;;;129.20;56.65;;;15.70;72.60;;;;;;5049555;28;20675;-37
2023/12/12 05:10:13;;;;;;;128.55;57.50;;;15.70;72.60;;;;;;5046697;28;20519;-37
2023/12/12 05:12:38;;;;;;;127.15;56.95;;;15.70;72.50;;;;;;5042079;28;20075;-38
2023/12/12 05:15:05;;;;;;;129.30;56.97;;;15.80;72.70;;;;;;5044988;28;20044;-37
2023/12/12 05:17:31;;;;;;;127.00;56.33;;;15.70;72.70;;;;;;5053190;28;20040;-38
2023/12/12 05:19:58;;;;;;;129.63;57.15;;;15.70;72.60;;;;;;5053453;28;20029;-38
2023/12/12 05:22:24;;;;;;;130.80;56.78;;;15.80;72.60;;;;;;5050306;28;20044;-37
2023/12/12 05:24:50;;;;;;;130.50;57.08;;;15.80;72.60;;;;;;5052865;28;20033;-37
2023/12/12 05:27:16;;;;;;;131.00;58.00;;;15.70;72.50;;;;;;5049761;28;20128;-38
2023/12/12 05:29:42;;;;;;;128.00;56.67;;;15.70;73.40;;;;;;5054690;28;20509;-37
2023/12/12 05:32:07;;;;;;;128.25;56.95;;;15.70;72.70;;;;;;5053877;28;20092;-37
2023/12/12 05:34:33;;;;;;;127.32;56.80;;;15.70;72.80;;;;;;5057595;28;20045;-38
2023/12/12 05:36:58;;;;;;;128.00;57.03;;;15.70;72.80;;;;;;5056231;28;20869;-37
2023/12/12 05:39:24;;;;;;;126.25;56.72;;;15.70;72.80;;;;;;5057314;28;20044;-38
2023/12/12 05:41:50;;;;;;;128.38;56.80;;;15.70;72.90;;;;;;5062947;28;20041;-38
2023/12/12 05:44:15;;;;;;;128.98;56.33;;;15.70;72.80;;;;;;5053381;28;20050;-38
2023/12/12 05:46:41;;;;;;;133.18;57.33;;;15.70;72.80;;;;;;5051920;28;20037;-39
2023/12/12 05:49:09;;;;;;;132.88;57.63;;;15.70;72.90;;;;;;5056205;28;20137;-38
2023/12/12 05:51:37;;;;;;;129.73;57.38;;;15.70;72.80;;;;;;5051327;28;20033;-38
2023/12/12 05:54:03;;;;;;;131.38;57.33;;;15.70;72.90;;;;;;5055610;28;20152;-38
2023/12/12 05:56:29;;;;;;;129.40;57.00;;;15.70;72.80;;;;;;5056233;28;20133;-45
2023/12/12 05:58:55;;;;;;;131.18;56.88;;;15.70;72.80;;;;;;5056324;28;20036;-47
2023/12/12 06:01:22;;;;;;;128.95;56.63;;;15.70;72.80;;;;;;5051128;28;20247;-45
2023/12/12 06:03:48;;;;;;;128.95;56.95;;;15.70;72.90;;;;;;5047476;28;20055;-46
2023/12/12 06:06:14;;;;;;;129.93;56.97;;;15.70;73.00;;;;;;5050478;28;20029;-45
2023/12/12 06:08:39;;;;;;;128.88;56.85;;;15.70;72.80;;;;;;5053238;28;20375;-47
2023/12/12 06:11:06;;;;;;;130.45;57.25;;;15.70;72.90;;;;;;5049882;28;20033;-44
2023/12/12 06:13:32;;;;;;;127.97;56.92;;;15.70;73.00;;;;;;5054495;28;20053;-38
2023/12/12 06:15:58;;;;;;;130.77;57.58;;;15.70;73.10;;;;;;5055466;28;20088;-46
2023/12/12 06:18:25;;;;;;;129.50;57.50;;;15.70;73.10;;;;;;5050188;28;20045;-38
2023/12/12 06:20:51;;;;;;;129.95;57.63;;;15.70;73.20;;;;;;5048012;28;20037;-42
2023/12/12 06:23:17;;;;;;;129.50;56.30;;;15.80;73.30;;;;;;5052507;28;20482;-43
2023/12/12 06:25:43;;;;;;;131.85;57.58;;;15.70;74.40;;;;;;5054440;28;20044;-44
2023/12/12 06:28:08;;;;;;;132.07;57.78;;;15.70;73.60;;;;;;5052145;28;20470;-40
2023/12/12 06:30:34;;;;;;;132.63;58.17;;;15.70;73.60;;;;;;5049707;28;20055;-46
2023/12/12 06:33:00;;;;;;;133.98;57.30;;;15.70;73.50;;;;;;5054850;28;20041;-46
2023/12/12 06:35:26;;;;;;;130.05;56.55;;;15.70;73.60;;;;;;5051836;28;20038;-43
2023/12/12 06:37:51;;;;;;;131.35;57.88;;;15.70;73.60;;;;;;5044456;28;20115;-42
2023/12/12 06:40:17;;;;;;;133.48;57.58;;;15.70;73.40;;;;;;5048484;28;20048;-41
2023/12/12 06:42:44;;;;;;;129.90;56.50;;;15.70;73.60;;;;;;5052562;28;20088;-45
2023/12/12 06:45:10;;;;;;;130.45;56.80;;;15.70;73.60;;;;;;5054605;28;20753;-42
2023/12/12 06:47:36;;;;;;;130.75;57.55;;;15.70;73.60;;;;;;5043734;28;20041;-40
2023/12/12 06:50:04;;;;;;;132.52;57.88;;;15.70;73.90;;;;;;5045623;28;20542;-40
2023/12/12 06:52:30;;;;;;;135.25;57.13;;;15.70;74.30;;;;;;5059098;28;20052;-42
2023/12/12 06:54:56;;;;;;;137.45;58.10;;;15.70;74.10;;;;;;5054975;28;20087;-38
2023/12/12 06:57:22;;;;;;;134.63;57.38;;;15.70;74.20;;;;;;5053678;28;20033;-41
2023/12/12 06:59:48;;;;;;;131.63;56.72;;;15.70;74.20;;;;;;5052266;28;20152;-40
2023/12/12 07:02:14;;;;;;;128.73;57.15;;;15.70;74.20;;;;;;5058227;28;20080;-43
2023/12/12 07:04:40;;;;;;;133.52;57.33;;;15.70;74.10;;;;;;5057205;28;20029;-40
2023/12/12 07:07:09;;;;;;;132.77;57.13;;;15.70;74.20;;;;;;5058809;28;20523;-45
2023/12/12 07:09:35;;;;;;;128.95;56.83;;;15.70;74.20;;;;;;5055848;28;20045;-41
2023/12/12 07:12:00;;;;;;;127.78;57.53;;;15.70;74.20;;;;;;5060743;28;20067;-41
2023/12/12 07:14:26;;;;;;;133.20;57.15;;;15.70;74.20;;;;;;5053226;28;20042;-46
2023/12/12 07:16:52;;;;;;;132.77;57.95;;;15.70;74.20;;;;;;5060815;28;20032;-38
2023/12/12 07:19:17;;;;;;;128.88;57.30;;;15.70;74.20;;;;;;5052687;28;20657;-45
2023/12/12 07:21:44;;;;;;;130.43;56.80;;;15.70;74.10;;;;;;5053524;28;20091;-45
2023/12/12 07:24:10;;;;;;;130.98;57.20;;;15.70;74.10;;;;;;5054021;28;20085;-38
2023/12/12 07:26:36;;;;;;;135.93;56.78;;;15.70;74.00;;;;;;5056171;28;20061;-40
2023/12/12 07:29:02;;;;;;;127.65;57.08;;;15.70;74.00;;;;;;5055992;28;20607;-41
2023/12/12 07:31:28;;;;;;;127.18;56.38;;;15.70;73.90;;;;;;5060500;28;20037;-43
2023/12/12 07:33:53;;;;;;;131.30;57.00;;;15.70;74.00;;;;;;5060655;28;20045;-38
2023/12/12 07:36:19;;;;;;;126.93;56.92;;;15.70;74.00;;;;;;5062546;28;20060;-41
2023/12/12 07:38:44;;;;;;;131.23;56.75;;;15.70;74.00;;;;;;5057948;28;20104;-42
2023/12/12 07:41:10;;;;;;;128.05;56.92;;;15.70;74.10;;;;;;5060380;28;20533;-37
2023/12/12 07:43:36;;;;;;;131.57;57.22;;;15.70;74.00;;;;;;5053454;28;20069;-45
2023/12/12 07:46:02;;;;;;;129.57;57.40;;;15.70;74.10;;;;;;5050918;28;20040;-43
2023/12/12 07:48:29;;;;;;;132.88;56.95;;;15.70;74.30;;;;;;5053440;28;20048;-38
2023/12/12 07:50:55;;;;;;;129.35;56.85;;;15.70;74.90;;;;;;5059583;28;20068;-40
2023/12/12 07:53:21;;;;;;;128.73;56.80;;;15.70;74.10;;;;;;5053431;28;20045;-43
2023/12/12 07:55:47;;;;;;;126.93;57.13;;;15.70;74.10;;;;;;5050798;28;20033;-42
2023/12/12 07:58:13;;;;;;;128.13;56.60;;;15.70;73.90;;;;;;5052106;28;20041;-42
2023/12/12 08:00:39;;;;;;;129.73;57.08;;;15.70;73.90;;;;;;5052022;28;20480;-43
2023/12/12 08:03:05;;;;;;;130.68;57.83;;;15.70;73.80;;;;;;5063937;28;20040;-38
2023/12/12 08:05:31;;;;;;;129.18;57.03;;;15.70;73.90;;;;;;5056348;28;20116;-44
2023/12/12 08:08:01;;;;;;;128.45;57.13;;;15.70;73.90;;;;;;5052728;28;20044;-42
2023/12/12 08:10:27;;;;;;;131.40;56.85;;;15.70;73.90;;;;;;5057718;28;20119;-40
2023/12/12 08:12:53;;;;;;;130.32;56.28;;;15.70;73.90;;;;;;5059857;28;20056;-42
2023/12/12 08:15:19;;;;;;;132.95;56.90;;;15.70;73.90;;;;;;5058655;28;20117;-41
2023/12/12 08:17:45;;;;;;;133.63;56.67;;;15.70;73.90;;;;;;5052425;28;20042;-39
2023/12/12 08:20:11;;;;;;;127.68;56.22;;;15.70;74.00;;;;;;5060292;28;20144;-43
2023/12/12 08:22:37;;;;;;;128.60;56.95;;;15.70;73.90;;;;;;5058432;28;20025;-38
2023/12/12 08:25:05;;;;;;;128.60;56.80;;;15.70;73.90;;;;;;5057959;28;20818;-43
2023/12/12 08:27:31;;;;;;;127.25;56.92;;;15.70;73.90;;;;;;5059504;28;20120;-38
2023/12/12 08:29:57;;;;;;;126.05;56.90;;;15.70;73.90;;;;;;5055905;28;20032;-43
2023/12/12 08:32:23;;;;;;;128.38;56.72;;;15.70;73.90;;;;;;5055333;28;20038;-42
2023/12/12 08:34:49;;;;;;;127.43;57.17;;;15.70;73.90;;;;;;5058192;28;20037;-45
2023/12/12 08:37:16;;;;;;;127.18;56.97;;;15.70;73.90;;;;;;5058404;28;20132;-39
2023/12/12 08:39:42;;;;;;;129.70;56.83;;;15.70;73.90;;;;;;5056526;28;20120;-38
2023/12/12 08:42:07;;;;;;;125.80;56.65;;;15.70;73.90;;;;;;5056946;28;20787;-41
2023/12/12 08:44:33;;;;;;;128.52;57.95;;;15.70;73.90;;;;;;5047118;28;20645;-39
2023/12/12 08:46:58;;;;;;;129.63;57.33;;;15.70;73.90;;;;;;5052105;28;20578;-38
2023/12/12 08:49:25;;;;;;;128.20;56.65;;;15.70;73.70;;;;;;5047145;28;20038;-42
2023/12/12 08:51:51;;;;;;;126.88;57.03;;;15.70;73.70;;;;;;5050875;28;20037;-41
2023/12/12 08:54:16;;;;;;;132.43;57.55;;;15.80;73.90;;;;;;5049467;28;20657;-38
2023/12/12 08:56:45;;;;;;;132.20;57.42;;;15.80;74.20;;;;;;5050842;28;20133;-44
2023/12/12 08:59:10;;;;;;;131.07;57.90;;;15.70;74.50;;;;;;5050040;28;20045;-42
2023/12/12 09:01:36;;;;;;;135.23;57.50;;;15.80;74.80;;;;;;5056785;28;20030;-41
2023/12/12 09:04:02;;;;;;;130.05;57.65;;;15.80;75.20;;;;;;5055134;28;20041;-38
2023/12/12 09:06:28;;;;;;;127.55;57.30;;;15.80;74.60;;;;;;5060154;28;20140;-38
2023/12/12 09:08:53;;;;;;;127.78;57.58;;;15.70;74.60;;;;;;5058270;28;20090;-39
2023/12/12 09:11:19;;;;;;;128.15;56.63;;;15.70;74.60;;;;;;5060235;28;20029;-42
2023/12/12 09:13:45;;;;;;;129.30;57.80;;;15.70;74.80;;;;;;5057861;28;20419;-41
2023/12/12 09:16:11;;;;;;;130.80;57.38;;;15.70;74.70;;;;;;5061848;28;20423;-42
2023/12/12 09:18:37;;;;;;;129.57;57.85;;;15.80;74.70;;;;;;5057766;28;20137;-42
2023/12/12 09:21:03;;;;;;;130.70;57.72;;;15.80;74.60;;;;;;5061905;28;20148;-43
2023/12/12 09:23:30;;;;;;;132.95;58.75;;;15.70;74.50;;;;;;5058546;28;20037;-40
2023/12/12 09:25:55;;;;;;;133.00;57.47;;;15.80;74.50;;;;;;5056227;28;20174;-43
2023/12/12 09:28:22;;;;;;;129.57;57.38;;;15.70;74.50;;;;;;5063121;28;20480;-43
2023/12/12 09:30:47;;;;;;;129.55;57.25;;;15.80;74.50;;;;;;5060015;28;20569;-39
2023/12/12 09:33:13;;;;;;;132.02;57.63;;;15.80;74.50;;;;;;5057132;28;20076;-41
2023/12/12 09:35:39;;;;;;;130.45;57.33;;;15.80;74.60;;;;;;5057508;28;20037;-47
2023/12/12 09:38:05;;;;;;;129.40;57.80;;;15.80;74.50;;;;;;5054572;28;20268;-42
2023/12/12 09:40:34;;;;;;;130.50;57.20;;;15.80;74.50;;;;;;5059707;28;21112;-45
2023/12/12 09:43:03;;;;;;;131.07;57.90;;;15.80;74.30;;;;;;5057641;28;20045;-44
2023/12/12 09:45:30;;;;;;;126.47;57.25;;;15.80;74.40;;;;;;5064227;28;20817;-41
2023/12/12 09:47:56;;;;;;;128.38;57.03;;;15.80;74.50;;;;;;5053759;28;20037;-39
2023/12/12 09:50:21;;;;;;;128.43;57.13;;;15.80;74.50;;;;;;5054419;28;20034;-43
2023/12/12 09:52:49;;;;;;;132.65;57.13;;;15.80;74.50;;;;;;5055537;28;20128;-40
2023/12/12 09:55:17;;;;;;;131.50;57.53;;;15.80;74.40;;;;;;5055721;28;20042;-41
2023/12/12 09:57:44;;;;;;;131.32;56.80;;;15.80;74.40;;;;;;5059369;28;20044;-45
2023/12/12 10:00:10;;;;;;;129.45;57.20;;;15.80;74.30;;;;;;5056569;28;20118;-44
2023/12/12 10:02:37;;;;;;;128.70;57.15;;;15.80;74.20;;;;;;5061272;28;20033;-44
2023/12/12 10:05:04;;;;;;;131.27;58.47;;;15.80;74.30;;;;;;5053257;28;20069;-40
2023/12/12 10:07:31;;;;;;;128.55;57.67;;;15.80;74.20;;;;;;5057385;28;20029;-38
2023/12/12 10:09:57;;;;;;;127.90;57.20;;;15.80;74.30;;;;;;5055484;28;20136;-38
2023/12/12 10:12:22;;;;;;;127.93;57.47;;;15.80;74.30;;;;;;5051848;28;20037;-43
2023/12/12 10:14:48;;;;;;;129.45;57.58;;;15.90;74.30;;;;;;5057984;28;20822;-40
2023/12/12 10:17:14;;;;;;;127.90;57.22;;;15.80;74.20;;;;;;5052720;28;20091;-43
2023/12/12 10:19:41;;;;;;;127.28;56.63;;;15.90;74.20;;;;;;5059226;28;20041;-38
2023/12/12 10:22:10;;;;;;;125.57;56.67;;;15.80;74.00;;;;;;5065825;28;20133;-42
2023/12/12 10:24:37;;;;;;;128.48;57.63;;;15.90;74.00;;;;;;5058422;28;20057;-39
2023/12/12 10:27:05;;;;;;;127.22;56.95;;;15.90;74.00;;;;;;5061288;28;20044;-42
2023/12/12 10:29:31;;;;;;;130.07;56.50;;;15.90;74.00;;;;;;5055527;28;20072;-41
2023/12/12 10:31:59;;;;;;;128.98;56.95;;;15.90;73.90;;;;;;5058915;28;20037;-40
2023/12/12 10:34:27;;;;;;;128.25;57.70;;;15.90;74.00;;;;;;5056830;28;20049;-41
2023/12/12 10:36:54;;;;;;;129.60;57.50;;;15.90;73.90;;;;;;5056719;28;20103;-40
2023/12/12 10:39:19;;;;;;;126.70;57.50;;;15.90;73.80;;;;;;5056713;28;20032;-46
2023/12/12 10:41:55;;;;;;;126.78;56.45;;;15.90;73.80;;;;;;5056325;28;20037;-40
2023/12/12 10:44:29;;;;;;;126.97;56.60;;;15.90;73.90;;;;;;5056121;28;20526;-40
2023/12/12 10:46:55;;;;;;;126.47;57.13;;;15.90;73.80;;;;;;5064966;28;20530;-42
2023/12/12 10:49:23;;;;;;;127.35;57.65;;;15.90;73.70;;;;;;5058746;28;20042;-38
2023/12/12 10:51:49;;;;;;;127.05;57.35;;;15.90;73.60;;;;;;5055873;28;20059;-39
2023/12/12 10:54:17;;;;;;;130.27;57.15;;;15.90;73.70;;;;;;5056776;28;20462;-39
2023/12/12 10:56:46;;;;;;;127.82;56.80;;;15.90;73.70;;;;;;5054727;28;20560;-44
2023/12/12 10:59:16;;;;;;;127.85;57.42;;;15.90;73.70;;;;;;5054974;28;20044;-42
2023/12/12 11:01:47;;;;;;;128.88;57.22;;;15.90;73.70;;;;;;5058095;28;20091;-40
2023/12/12 11:04:14;;;;;;;128.10;56.80;;;15.90;73.70;;;;;;5059112;28;21600;-43
2023/12/12 11:06:44;;;;;;;128.27;57.25;;;15.90;73.70;;;;;;5055129;28;20159;-39
2023/12/12 11:09:10;;;;;;;127.10;57.40;;;15.90;73.70;;;;;;5052922;28;20048;-42
2023/12/12 11:11:42;;;;;;;126.50;56.83;;;16.00;73.70;;;;;;5053284;28;20426;-39
2023/12/12 11:14:11;;;;;;;126.25;56.90;;;16.00;73.60;;;;;;5052786;28;20245;-41
2023/12/12 11:16:38;;;;;;;130.95;57.47;;;16.00;73.70;;;;;;5055136;28;20052;-43
2023/12/12 11:19:03;;;;;;;125.93;56.88;;;16.00;73.60;;;;;;5055459;28;20037;-39
2023/12/12 11:21:46;;;;;;;126.68;57.33;;;16.00;73.40;;;;;;5055786;28;20044;-42
2023/12/12 11:24:13;;;;;;;127.70;56.83;;;16.00;73.40;;;;;;5057395;28;20045;-42
2023/12/12 11:26:44;;;;;;;126.72;57.05;;;16.00;73.30;;;;;;5057396;28;20045;-40
2023/12/12 11:29:12;;;;;;;127.63;57.75;;;16.00;73.20;;;;;;5056825;28;20041;-43
2023/12/12 11:32:02;;;;;;;125.63;56.67;;;16.10;73.40;;;;;;5058025;28;20496;-42
2023/12/12 11:34:37;;;;;;;126.65;56.88;;;16.10;73.30;;;;;;5058293;28;20562;-38
2023/12/12 11:37:03;;;;;;;127.38;57.90;;;16.10;73.10;;;;;;5057649;28;20040;-38
2023/12/12 11:39:50;;;;;;;128.15;57.20;;;16.10;72.90;;;;;;5053970;28;20037;-44
2023/12/12 11:42:21;;;;;;;127.80;56.80;;;16.20;72.90;;;;;;5057617;28;20826;-45
2023/12/12 11:45:06;;;;;;;126.72;56.83;;;16.20;72.80;;;;;;5054402;28;20041;-42
2023/12/12 11:47:34;;;;;;;127.43;57.10;;;16.20;72.90;;;;;;5057557;28;20100;-43
2023/12/12 11:50:13;;;;;;;128.07;57.03;;;16.20;72.80;;;;;;5057181;28;20033;-40
2023/12/12 11:52:38;;;;;;;127.68;57.33;;;16.20;72.70;;;;;;5051076;28;20969;-38
2023/12/12 11:55:10;;;;;;;128.18;56.80;;;16.20;72.80;;;;;;5054296;28;20552;-38
2023/12/12 11:57:36;;;;;;;125.95;56.90;;;16.20;72.80;;;;;;5052361;28;20693;-38
2023/12/12 12:00:20;;;;;;;127.55;57.22;;;16.20;72.60;;;;;;5055287;28;20138;-37
2023/12/12 12:02:46;;;;;;;126.88;56.88;;;16.20;72.70;;;;;;5057844;28;20037;-37
2023/12/12 12:05:12;;;;;;;126.22;56.97;;;16.20;72.70;;;;;;5057444;28;20037;-38
2023/12/12 12:07:38;;;;;;;126.45;56.42;;;16.20;72.60;;;;;;5060350;28;20069;-37
2023/12/12 12:10:08;;;;;;;129.15;57.30;;;16.20;72.80;;;;;;5060770;28;20064;-47
2023/12/12 12:12:34;;;;;;;127.35;56.97;;;16.20;72.80;;;;;;5053995;28;20033;-46
2023/12/12 12:15:05;;;;;;;126.40;56.97;;;16.20;72.90;;;;;;5055320;28;20040;-46